Time;durP1;ratioP1;P1;durP2;ratioP2;P2;SDS_P1;SDS_P2;PMS_P1;PMS_P2;Temp;Humidity;BMP_temperature;BMP_pressure;BME280_temperature;BME280_humidity;BME280_pressure;Samples;Min_cycle;Max_cycle;Signal;HPM_P1;HPM_P2
2022/06/21 00:00:14;;;;;;;4.47;2.07;;;;;;;;;;5053912;28;20204;-57
2022/06/21 00:02:40;;;;;;;6.60;2.00;;;;;;;;;;5053762;28;20708;-56
2022/06/21 00:05:12;;;;;;;6.73;2.30;;;;;;;;;;5053715;28;20200;-57
2022/06/21 00:07:38;;;;;;;7.93;2.50;;;;;;;;;;5053837;28;20216;-57
2022/06/21 00:10:06;;;;;;;5.37;2.40;;;;;;;;;;5053782;28;20235;-56
2022/06/21 00:12:32;;;;;;;6.57;2.20;;;;;;;;;;5053248;28;20283;-57
2022/06/21 00:14:59;;;;;;;6.70;2.23;;;;;;;;;;5053074;28;20284;-56
2022/06/21 00:17:25;;;;;;;9.10;2.60;;;;;;;;;;5053384;28;20224;-57
2022/06/21 00:19:51;;;;;;;4.20;2.10;;;;;;;;;;5053049;28;20208;-57
2022/06/21 00:22:19;;;;;;;7.03;2.30;;;;;;;;;;5051716;28;20595;-57
2022/06/21 00:24:46;;;;;;;7.37;2.67;;;;;;;;;;5053637;28;20211;-56
2022/06/21 00:27:13;;;;;;;4.50;2.13;;;;;;;;;;5051324;28;20239;-57
2022/06/21 00:29:39;;;;;;;9.47;2.83;;;;;;;;;;5053316;28;20219;-56
2022/06/21 00:32:10;;;;;;;5.67;2.37;;;;;;;;;;5053162;28;20197;-56
2022/06/21 00:34:36;;;;;;;11.03;2.67;;;;;;;;;;5052754;28;20208;-56
2022/06/21 00:37:02;;;;;;;6.53;2.50;;;;;;;;;;5053150;28;20232;-56
2022/06/21 00:39:27;;;;;;;6.47;2.80;;;;;;;;;;5052981;28;20710;-56
2022/06/21 00:41:55;;;;;;;7.10;2.70;;;;;;;;;;5053032;28;20204;-56
2022/06/21 00:44:22;;;;;;;6.10;2.30;;;;;;;;;;5053213;28;20200;-56
2022/06/21 00:46:52;;;;;;;6.83;2.80;;;;;;;;;;5052955;28;20199;-56
2022/06/21 00:49:28;;;;;;;5.43;2.53;;;;;;;;;;5052818;28;20208;-56
2022/06/21 00:51:57;;;;;;;9.07;3.40;;;;;;;;;;5053000;28;20213;-56
2022/06/21 00:54:26;;;;;;;11.83;2.73;;;;;;;;;;5052664;28;20192;-56
2022/06/21 00:56:55;;;;;;;13.70;3.13;;;;;;;;;;5052571;28;20224;-56
2022/06/21 00:59:22;;;;;;;8.77;2.70;;;;;;;;;;5052785;28;20200;-56
2022/06/21 01:01:49;;;;;;;9.20;2.80;;;;;;;;;;5052396;28;20201;-56
2022/06/21 01:04:16;;;;;;;5.67;2.50;;;;;;;;;;5052606;28;20208;-57
2022/06/21 01:06:46;;;;;;;7.10;2.77;;;;;;;;;;5052442;28;20291;-56
2022/06/21 01:09:14;;;;;;;5.90;2.57;;;;;;;;;;5052610;28;20622;-56
2022/06/21 01:11:41;;;;;;;4.57;2.60;;;;;;;;;;5050966;28;20287;-56
2022/06/21 01:14:08;;;;;;;7.53;3.10;;;;;;;;;;5053249;28;20288;-56
2022/06/21 01:16:35;;;;;;;6.10;2.30;;;;;;;;;;5051995;28;20232;-56
2022/06/21 01:19:01;;;;;;;4.83;2.33;;;;;;;;;;5052017;28;20397;-56
2022/06/21 01:21:29;;;;;;;6.73;2.50;;;;;;;;;;5052001;28;20204;-55
2022/06/21 01:24:02;;;;;;;7.50;2.70;;;;;;;;;;5052027;28;20207;-56
2022/06/21 01:26:46;;;;;;;6.23;2.60;;;;;;;;;;5051596;28;20702;-56
2022/06/21 01:29:14;;;;;;;4.70;2.87;;;;;;;;;;5051808;28;20231;-55
2022/06/21 01:31:41;;;;;;;5.60;2.43;;;;;;;;;;5051779;28;20224;-55
2022/06/21 01:34:10;;;;;;;6.67;3.23;;;;;;;;;;5051685;28;20192;-56
2022/06/21 01:36:36;;;;;;;8.37;3.23;;;;;;;;;;5051605;28;20595;-56
2022/06/21 01:39:05;;;;;;;4.70;2.47;;;;;;;;;;5051871;28;20203;-55
2022/06/21 01:41:33;;;;;;;4.50;2.60;;;;;;;;;;5051677;28;20199;-56
2022/06/21 01:44:04;;;;;;;7.17;2.77;;;;;;;;;;5051541;28;20195;-55
2022/06/21 01:46:32;;;;;;;10.20;2.90;;;;;;;;;;5051193;28;20196;-55
2022/06/21 01:49:00;;;;;;;8.57;3.03;;;;;;;;;;5051660;28;20701;-56
2022/06/21 01:51:29;;;;;;;5.20;2.77;;;;;;;;;;5051638;28;20192;-55
2022/06/21 01:53:56;;;;;;;5.43;2.40;;;;;;;;;;5051517;28;20200;-56
2022/06/21 01:56:25;;;;;;;5.80;2.90;;;;;;;;;;5051380;28;20228;-55
2022/06/21 01:58:53;;;;;;;4.23;2.33;;;;;;;;;;5051462;28;20199;-55
2022/06/21 02:01:22;;;;;;;5.03;2.33;;;;;;;;;;5051373;28;20254;-55
2022/06/21 02:03:49;;;;;;;7.40;2.83;;;;;;;;;;5051205;28;20279;-55
2022/06/21 02:06:17;;;;;;;6.43;2.90;;;;;;;;;;5051483;28;20200;-55
2022/06/21 02:08:44;;;;;;;6.17;2.53;;;;;;;;;;5051218;28;20708;-55
2022/06/21 02:11:13;;;;;;;3.90;2.47;;;;;;;;;;5051020;28;20211;-55
2022/06/21 02:13:41;;;;;;;5.53;2.83;;;;;;;;;;5051075;28;20192;-55
2022/06/21 02:16:10;;;;;;;5.40;2.87;;;;;;;;;;5051124;28;20266;-55
2022/06/21 02:18:44;;;;;;;4.13;2.70;;;;;;;;;;5051099;28;20200;-54
2022/06/21 02:21:13;;;;;;;5.07;2.87;;;;;;;;;;5051238;28;20223;-55
2022/06/21 02:23:40;;;;;;;4.57;2.33;;;;;;;;;;5051229;28;20200;-55
2022/06/21 02:26:06;;;;;;;4.33;2.70;;;;;;;;;;5051129;28;20303;-55
2022/06/21 02:28:32;;;;;;;7.73;3.20;;;;;;;;;;5050975;28;20275;-55
2022/06/21 02:30:59;;;;;;;6.53;3.00;;;;;;;;;;5050975;28;20192;-56
2022/06/21 02:33:28;;;;;;;5.87;3.17;;;;;;;;;;5051256;28;20200;-55
2022/06/21 02:35:57;;;;;;;5.83;2.80;;;;;;;;;;5051128;28;20220;-55
2022/06/21 02:38:25;;;;;;;5.53;3.20;;;;;;;;;;5050784;28;20750;-55
2022/06/21 02:40:54;;;;;;;5.37;3.03;;;;;;;;;;5050831;28;20752;-55
2022/06/21 02:43:22;;;;;;;6.80;3.00;;;;;;;;;;5051190;28;20235;-55
2022/06/21 02:45:50;;;;;;;8.30;3.10;;;;;;;;;;5050807;28;20725;-55
2022/06/21 02:48:18;;;;;;;7.47;3.37;;;;;;;;;;5050944;28;20744;-54
2022/06/21 02:50:46;;;;;;;7.33;3.17;;;;;;;;;;5050894;28;20243;-54
2022/06/21 02:53:18;;;;;;;4.90;2.90;;;;;;;;;;5050919;28;20672;-55
2022/06/21 02:55:46;;;;;;;6.60;2.87;;;;;;;;;;5050804;28;20270;-55
2022/06/21 02:58:16;;;;;;;7.47;3.60;;;;;;;;;;5051607;28;20694;-54
2022/06/21 03:00:42;;;;;;;8.03;3.23;;;;;;;;;;5054649;28;20195;-55
2022/06/21 03:03:13;;;;;;;6.43;3.27;;;;;;;;;;5054856;28;20200;-55
2022/06/21 03:05:39;;;;;;;6.30;3.10;;;;;;;;;;5054244;28;20597;-55
2022/06/21 03:08:06;;;;;;;7.17;3.30;;;;;;;;;;5054413;28;20196;-55
2022/06/21 03:10:36;;;;;;;6.53;3.17;;;;;;;;;;5054556;28;20208;-55
2022/06/21 03:13:04;;;;;;;6.13;2.90;;;;;;;;;;5054447;28;20203;-55
2022/06/21 03:15:30;;;;;;;7.83;3.83;;;;;;;;;;5053866;28;20330;-54
2022/06/21 03:17:58;;;;;;;6.30;3.50;;;;;;;;;;5054185;28;20710;-55
2022/06/21 03:20:25;;;;;;;9.23;4.17;;;;;;;;;;5054365;28;20219;-55
2022/06/21 03:22:53;;;;;;;7.63;3.67;;;;;;;;;;5054147;28;20424;-55
2022/06/21 03:25:21;;;;;;;6.77;3.83;;;;;;;;;;5054168;28;20604;-55
2022/06/21 03:27:53;;;;;;;5.17;3.17;;;;;;;;;;5054055;28;20234;-54
2022/06/21 03:30:20;;;;;;;6.47;3.87;;;;;;;;;;5053974;28;20274;-54
2022/06/21 03:32:46;;;;;;;7.00;3.60;;;;;;;;;;5053944;28;20635;-55
2022/06/21 03:35:14;;;;;;;5.93;3.73;;;;;;;;;;5054338;28;20295;-55
2022/06/21 03:37:42;;;;;;;8.37;3.47;;;;;;;;;;5053832;28;20701;-55
2022/06/21 03:42:56;;;;;;;9.13;3.83;;;;;;;;;;5053876;28;20480;-55
2022/06/21 03:45:24;;;;;;;9.23;4.30;;;;;;;;;;5053992;28;20197;-55
2022/06/21 03:47:56;;;;;;;8.53;4.13;;;;;;;;;;5053622;28;20222;-55
2022/06/21 03:50:25;;;;;;;9.83;4.37;;;;;;;;;;5053768;28;20197;-55
2022/06/21 03:52:56;;;;;;;5.17;3.53;;;;;;;;;;5053538;28;20583;-55
2022/06/21 03:55:26;;;;;;;6.03;3.90;;;;;;;;;;5053637;28;20258;-54
2022/06/21 03:57:54;;;;;;;6.10;3.57;;;;;;;;;;5053434;28;20236;-54
2022/06/21 04:00:22;;;;;;;7.60;3.87;;;;;;;;;;5053643;28;20201;-54
2022/06/21 04:02:51;;;;;;;5.07;3.43;;;;;;;;;;5053344;28;20418;-54
2022/06/21 04:05:19;;;;;;;9.13;4.27;;;;;;;;;;5053620;28;20254;-54
2022/06/21 04:07:49;;;;;;;8.43;4.23;;;;;;;;;;5053471;28;20180;-54
2022/06/21 04:10:16;;;;;;;7.13;4.07;;;;;;;;;;5053102;28;20235;-55
2022/06/21 04:12:44;;;;;;;7.13;3.93;;;;;;;;;;5053263;28;20200;-54
2022/06/21 04:15:13;;;;;;;6.63;3.80;;;;;;;;;;5040372;28;20228;-54
2022/06/21 04:17:44;;;;;;;7.30;4.30;;;;;;;;;;5033296;28;20235;-55
2022/06/21 04:20:14;;;;;;;10.63;4.60;;;;;;;;;;5032086;28;20233;-54
2022/06/21 04:22:46;;;;;;;10.50;4.20;;;;;;;;;;5033141;28;20201;-55
2022/06/21 04:25:16;;;;;;;12.53;4.73;;;;;;;;;;5033128;28;20749;-55
2022/06/21 04:27:46;;;;;;;9.90;4.33;;;;;;;;;;5033042;28;20550;-55
2022/06/21 04:30:17;;;;;;;5.90;3.93;;;;;;;;;;5033186;28;20565;-55
2022/06/21 04:32:46;;;;;;;9.00;4.10;;;;;;;;;;5033166;28;20578;-55
2022/06/21 04:35:14;;;;;;;6.83;4.57;;;;;;;;;;5037158;28;20757;-55
2022/06/21 04:37:43;;;;;;;9.97;4.50;;;;;;;;;;5052622;28;20720;-55
2022/06/21 04:40:12;;;;;;;6.63;4.33;;;;;;;;;;5052796;28;20232;-55
2022/06/21 04:42:40;;;;;;;6.37;3.90;;;;;;;;;;5052626;28;20650;-54
2022/06/21 04:45:08;;;;;;;11.43;4.30;;;;;;;;;;5052629;28;20196;-54
2022/06/21 04:47:37;;;;;;;5.87;3.60;;;;;;;;;;5052440;28;20196;-54
2022/06/21 04:50:13;;;;;;;7.20;3.80;;;;;;;;;;5052434;28;20266;-54
2022/06/21 04:52:41;;;;;;;7.20;4.13;;;;;;;;;;5052149;28;20771;-55
2022/06/21 04:55:09;;;;;;;7.43;3.93;;;;;;;;;;5052551;28;20203;-54
2022/06/21 04:57:35;;;;;;;7.13;3.27;;;;;;;;;;5052449;28;20266;-54
2022/06/21 05:00:03;;;;;;;6.97;3.83;;;;;;;;;;5051627;28;20204;-55
2022/06/21 05:02:31;;;;;;;11.90;4.20;;;;;;;;;;5050069;28;20283;-54
2022/06/21 05:04:58;;;;;;;11.20;4.27;;;;;;;;;;5052205;28;20197;-54
2022/06/21 05:07:29;;;;;;;9.97;4.20;;;;;;;;;;5045926;28;20188;-54
2022/06/21 05:09:55;;;;;;;6.00;3.70;;;;;;;;;;5051803;28;20236;-54
2022/06/21 05:12:24;;;;;;;9.13;4.53;;;;;;;;;;5052020;28;20204;-55
2022/06/21 05:14:51;;;;;;;12.40;4.50;;;;;;;;;;5051290;28;20196;-54
2022/06/21 05:17:19;;;;;;;8.20;4.30;;;;;;;;;;5051358;28;20252;-54
2022/06/21 05:19:47;;;;;;;5.93;4.00;;;;;;;;;;5051761;28;20658;-54
2022/06/21 05:22:17;;;;;;;6.13;3.60;;;;;;;;;;5050604;28;20200;-55
2022/06/21 05:24:44;;;;;;;7.33;3.80;;;;;;;;;;5051349;28;20200;-55
2022/06/21 05:27:14;;;;;;;9.50;3.90;;;;;;;;;;5051242;28;20247;-54
2022/06/21 05:29:44;;;;;;;8.67;4.00;;;;;;;;;;5051638;28;20204;-55
2022/06/21 05:32:12;;;;;;;8.20;3.87;;;;;;;;;;5051802;28;20208;-56
2022/06/21 05:34:42;;;;;;;11.40;4.30;;;;;;;;;;5051391;28;20219;-55
2022/06/21 05:37:15;;;;;;;10.43;4.20;;;;;;;;;;5051192;28;20757;-55
2022/06/21 05:39:42;;;;;;;6.80;3.50;;;;;;;;;;5051432;28;20227;-55
2022/06/21 05:42:13;;;;;;;8.00;3.80;;;;;;;;;;5051533;28;20668;-55
2022/06/21 05:44:43;;;;;;;11.07;4.23;;;;;;;;;;5051441;28;20207;-55
2022/06/21 05:47:14;;;;;;;10.17;4.10;;;;;;;;;;5051130;28;20246;-55
2022/06/21 05:49:41;;;;;;;10.97;4.47;;;;;;;;;;5051181;28;20299;-55
2022/06/21 05:52:10;;;;;;;9.07;4.37;;;;;;;;;;5051786;28;20196;-56
2022/06/21 05:54:37;;;;;;;9.73;3.70;;;;;;;;;;5051411;28;20628;-56
2022/06/21 05:57:05;;;;;;;7.40;3.90;;;;;;;;;;5051175;28;20277;-55
2022/06/21 05:59:32;;;;;;;9.37;3.53;;;;;;;;;;5051407;28;20261;-56
2022/06/21 06:02:01;;;;;;;8.43;3.73;;;;;;;;;;5051447;28;20200;-56
2022/06/21 06:04:29;;;;;;;6.80;3.20;;;;;;;;;;5051180;28;20241;-55
2022/06/21 06:06:56;;;;;;;10.80;3.70;;;;;;;;;;5051334;28;20283;-56
2022/06/21 06:09:25;;;;;;;8.70;3.33;;;;;;;;;;5051274;28;20207;-57
2022/06/21 06:12:00;;;;;;;8.50;3.37;;;;;;;;;;5041587;28;20308;-55
2022/06/21 06:14:29;;;;;;;9.40;3.23;;;;;;;;;;5049856;28;20238;-56
2022/06/21 06:16:57;;;;;;;7.13;3.10;;;;;;;;;;5050812;28;20729;-53
2022/06/21 06:19:28;;;;;;;7.00;3.23;;;;;;;;;;5050843;28;20208;-54
2022/06/21 06:22:08;;;;;;;8.97;3.20;;;;;;;;;;5050855;28;20208;-55
2022/06/21 06:24:35;;;;;;;6.40;2.53;;;;;;;;;;5051119;28;20200;-55
2022/06/21 06:27:03;;;;;;;6.73;3.00;;;;;;;;;;5050731;28;20219;-57
2022/06/21 06:29:32;;;;;;;7.63;3.30;;;;;;;;;;5051381;28;20204;-56
2022/06/21 06:32:02;;;;;;;7.50;3.00;;;;;;;;;;5051628;28;20295;-57
2022/06/21 06:34:29;;;;;;;9.27;3.40;;;;;;;;;;5055229;28;20200;-56
2022/06/21 06:36:57;;;;;;;7.40;3.03;;;;;;;;;;5054852;28;20235;-57
2022/06/21 06:39:24;;;;;;;8.27;2.50;;;;;;;;;;5052395;28;20215;-57
2022/06/21 06:41:51;;;;;;;10.37;2.80;;;;;;;;;;5053463;28;20207;-57
2022/06/21 06:44:19;;;;;;;7.77;2.53;;;;;;;;;;5054588;28;20638;-57
2022/06/21 06:46:48;;;;;;;8.80;2.50;;;;;;;;;;5054589;28;20199;-58
2022/06/21 06:49:17;;;;;;;7.57;2.40;;;;;;;;;;5054838;28;20207;-58
2022/06/21 06:51:46;;;;;;;6.77;2.27;;;;;;;;;;5054684;28;20704;-58
2022/06/21 06:54:15;;;;;;;6.57;2.80;;;;;;;;;;5054534;28;20196;-58
2022/06/21 06:56:47;;;;;;;8.10;2.73;;;;;;;;;;5054442;28;20204;-58
2022/06/21 06:59:15;;;;;;;7.87;3.00;;;;;;;;;;5054550;28;20642;-58
2022/06/21 07:01:44;;;;;;;10.33;2.60;;;;;;;;;;5054600;28;20213;-58
2022/06/21 07:04:12;;;;;;;12.73;3.60;;;;;;;;;;5054319;28;20655;-57
2022/06/21 07:06:41;;;;;;;6.70;2.40;;;;;;;;;;5054521;28;20204;-58
2022/06/21 07:09:12;;;;;;;8.90;2.90;;;;;;;;;;5054618;28;20258;-57
2022/06/21 07:11:47;;;;;;;8.10;2.43;;;;;;;;;;5054638;28;20204;-58
2022/06/21 07:14:14;;;;;;;7.17;2.43;;;;;;;;;;5054984;28;20204;-58
2022/06/21 07:16:41;;;;;;;6.83;2.13;;;;;;;;;;5054167;28;20236;-58
2022/06/21 07:19:08;;;;;;;9.33;2.73;;;;;;;;;;5053946;28;20208;-58
2022/06/21 07:21:35;;;;;;;12.53;2.50;;;;;;;;;;5054256;28;20329;-57
2022/06/21 07:24:03;;;;;;;8.50;2.73;;;;;;;;;;5053863;28;20649;-57
2022/06/21 07:26:31;;;;;;;7.57;2.63;;;;;;;;;;5053832;28;20220;-57
2022/06/21 07:28:59;;;;;;;10.47;3.20;;;;;;;;;;5054099;28;20200;-57
2022/06/21 07:31:27;;;;;;;9.90;2.47;;;;;;;;;;5054182;28;20193;-57
2022/06/21 07:33:58;;;;;;;7.43;2.13;;;;;;;;;;5053949;28;20204;-57
2022/06/21 07:36:28;;;;;;;5.67;2.30;;;;;;;;;;5053820;28;20277;-57
2022/06/21 07:38:57;;;;;;;7.57;2.27;;;;;;;;;;5053777;28;20225;-58
2022/06/21 07:41:26;;;;;;;7.77;2.57;;;;;;;;;;5053843;28;20335;-58
2022/06/21 07:43:54;;;;;;;9.63;2.63;;;;;;;;;;5053135;28;20610;-58
2022/06/21 07:46:24;;;;;;;7.80;2.60;;;;;;;;;;5053620;28;20204;-58
2022/06/21 07:48:53;;;;;;;8.63;2.70;;;;;;;;;;5053784;28;20189;-57
2022/06/21 07:51:20;;;;;;;8.80;2.70;;;;;;;;;;5053697;28;20212;-57
2022/06/21 07:53:49;;;;;;;7.20;2.40;;;;;;;;;;5053381;28;20695;-58
2022/06/21 07:56:16;;;;;;;9.57;2.73;;;;;;;;;;5053185;28;20798;-58
2022/06/21 07:58:47;;;;;;;6.50;1.97;;;;;;;;;;5053896;28;20228;-57
2022/06/21 08:06:50;;;;;;;5.97;2.40;;;;;;;;;;5053244;28;20203;-57
2022/06/21 08:09:21;;;;;;;3.87;2.23;;;;;;;;;;5053339;28;20199;-59
2022/06/21 08:11:48;;;;;;;10.80;2.23;;;;;;;;;;5053376;28;20278;-58
2022/06/21 08:14:16;;;;;;;6.83;2.47;;;;;;;;;;5053479;28;20204;-57
2022/06/21 08:16:43;;;;;;;7.40;2.37;;;;;;;;;;5053268;28;20650;-57
2022/06/21 08:19:15;;;;;;;8.33;2.30;;;;;;;;;;5053599;28;20210;-56
2022/06/21 08:21:44;;;;;;;8.27;2.37;;;;;;;;;;5053727;28;20287;-56
2022/06/21 08:24:14;;;;;;;7.13;2.33;;;;;;;;;;5053239;28;20301;-58
2022/06/21 08:26:42;;;;;;;5.77;2.03;;;;;;;;;;5051177;28;20224;-59
2022/06/21 08:29:10;;;;;;;6.13;2.10;;;;;;;;;;5052533;28;20208;-59
2022/06/21 08:31:39;;;;;;;8.53;2.03;;;;;;;;;;5053124;28;20208;-59
2022/06/21 08:34:08;;;;;;;6.87;2.50;;;;;;;;;;5053046;28;20212;-59
2022/06/21 08:36:36;;;;;;;7.63;2.67;;;;;;;;;;5052777;28;20199;-59
2022/06/21 08:39:04;;;;;;;5.13;2.03;;;;;;;;;;5052693;28;20311;-58
2022/06/21 08:41:52;;;;;;;3.80;2.27;;;;;;;;;;5052823;28;20291;-59
2022/06/21 08:45:40;;;;;;;9.57;2.33;;;;;;;;;;5053073;28;20674;-59
2022/06/21 08:47:58;;;;;;;5.37;2.47;;;;;;;;;;5052362;28;20562;-59
2022/06/21 08:50:33;;;;;;;4.07;1.77;;;;;;;;;;5027261;28;20207;-59
2022/06/21 08:53:11;;;;;;;10.67;2.30;;;;;;;;;;5052889;28;20222;-59
2022/06/21 08:55:40;;;;;;;7.20;2.43;;;;;;;;;;5051707;28;20207;-59
2022/06/21 08:58:17;;;;;;;3.17;1.73;;;;;;;;;;5052482;28;20243;-61
2022/06/21 09:00:46;;;;;;;5.00;1.90;;;;;;;;;;5052688;28;20222;-59
2022/06/21 09:03:23;;;;;;;8.77;2.23;;;;;;;;;;5052471;28;20291;-58
2022/06/21 09:05:57;;;;;;;5.07;2.37;;;;;;;;;;5052520;28;20195;-58
2022/06/21 09:08:33;;;;;;;6.40;1.97;;;;;;;;;;5052660;28;20200;-59
2022/06/21 09:11:07;;;;;;;6.10;2.00;;;;;;;;;;5052427;28;20219;-60
2022/06/21 09:13:45;;;;;;;6.70;2.37;;;;;;;;;;5052656;28;20589;-60
2022/06/21 09:16:17;;;;;;;4.70;2.40;;;;;;;;;;5051973;28;20254;-59
2022/06/21 09:18:50;;;;;;;5.80;2.27;;;;;;;;;;5052165;28;20311;-59
2022/06/21 09:21:26;;;;;;;5.63;2.00;;;;;;;;;;5052196;28;20713;-59
2022/06/21 09:24:00;;;;;;;6.97;2.27;;;;;;;;;;5052221;28;20261;-59
2022/06/21 09:26:33;;;;;;;4.47;2.10;;;;;;;;;;5052220;28;20235;-59
2022/06/21 09:29:07;;;;;;;6.47;2.37;;;;;;;;;;5051776;28;20234;-58
2022/06/21 09:31:38;;;;;;;3.30;1.53;;;;;;;;;;5052056;28;20204;-60
2022/06/21 09:34:06;;;;;;;5.83;2.17;;;;;;;;;;5051721;28;20641;-59
2022/06/21 09:36:38;;;;;;;4.57;1.83;;;;;;;;;;5052039;28;20204;-60
2022/06/21 09:39:10;;;;;;;5.23;1.97;;;;;;;;;;5051898;28;20331;-59
2022/06/21 09:41:41;;;;;;;5.27;2.03;;;;;;;;;;5051714;28;20215;-59
2022/06/21 09:44:11;;;;;;;4.47;2.00;;;;;;;;;;5052106;28;20192;-60
2022/06/21 09:46:47;;;;;;;5.17;1.80;;;;;;;;;;5052009;28;20197;-60
2022/06/21 09:49:22;;;;;;;5.37;2.37;;;;;;;;;;5051782;28;20640;-61
2022/06/21 09:51:55;;;;;;;5.50;2.00;;;;;;;;;;5051779;28;20193;-60
2022/06/21 09:54:31;;;;;;;5.00;1.93;;;;;;;;;;5051852;28;20204;-60
2022/06/21 09:56:59;;;;;;;7.47;2.00;;;;;;;;;;5051324;28;20777;-60
2022/06/21 09:59:29;;;;;;;6.10;2.03;;;;;;;;;;5051788;28;20197;-60
2022/06/21 10:02:00;;;;;;;6.10;1.90;;;;;;;;;;5051689;28;20295;-60
2022/06/21 10:04:31;;;;;;;7.37;1.80;;;;;;;;;;5051755;28;20622;-60
2022/06/21 10:07:02;;;;;;;6.80;2.10;;;;;;;;;;5051080;28;20212;-61
2022/06/21 10:09:34;;;;;;;7.03;2.03;;;;;;;;;;5051346;28;20739;-60
2022/06/21 10:12:04;;;;;;;3.97;1.90;;;;;;;;;;5051515;28;20200;-61
2022/06/21 10:14:37;;;;;;;8.60;1.87;;;;;;;;;;5051485;28;20203;-60
2022/06/21 10:17:27;;;;;;;6.33;2.10;;;;;;;;;;5050901;28;20316;-61
2022/06/21 10:20:04;;;;;;;8.70;2.23;;;;;;;;;;5051406;28;20219;-63
2022/06/21 10:22:36;;;;;;;5.37;1.80;;;;;;;;;;5051304;28;20568;-63
2022/06/21 10:25:32;;;;;;;3.47;1.90;;;;;;;;;;5051191;28;20291;-63
2022/06/21 10:28:09;;;;;;;4.53;1.80;;;;;;;;;;5051048;28;20193;-64
2022/06/21 10:30:43;;;;;;;5.87;2.10;;;;;;;;;;5051156;28;20286;-61
2022/06/21 10:33:20;;;;;;;3.63;1.53;;;;;;;;;;5050931;28;20520;-61
2022/06/21 10:35:54;;;;;;;2.53;1.50;;;;;;;;;;5051125;28;20196;-60
2022/06/21 10:38:28;;;;;;;3.93;1.50;;;;;;;;;;5050921;28;20284;-57
2022/06/21 10:41:02;;;;;;;5.10;1.80;;;;;;;;;;5050970;28;20205;-55
2022/06/21 10:43:38;;;;;;;3.03;1.67;;;;;;;;;;5051174;28;20297;-55
2022/06/21 10:46:09;;;;;;;3.33;1.57;;;;;;;;;;5050977;28;20229;-56
2022/06/21 10:48:49;;;;;;;2.97;1.53;;;;;;;;;;5051294;28;20248;-55
2022/06/21 10:51:22;;;;;;;2.43;1.40;;;;;;;;;;5051168;28;20236;-54
2022/06/21 10:54:00;;;;;;;2.53;1.40;;;;;;;;;;5051218;28;20292;-54
2022/06/21 10:59:26;;;;;;;3.07;1.67;;;;;;;;;;5051180;28;20863;-54
2022/06/21 11:01:55;;;;;;;3.73;1.60;;;;;;;;;;5050946;28;20205;-54
2022/06/21 11:04:39;;;;;;;3.23;1.80;;;;;;;;;;5050792;28;20222;-55
2022/06/21 11:07:09;;;;;;;4.83;1.70;;;;;;;;;;5051262;28;20195;-54
2022/06/21 11:09:39;;;;;;;3.50;1.60;;;;;;;;;;5048786;28;20219;-55
2022/06/21 11:15:00;;;;;;;5.10;1.70;;;;;;;;;;5048474;28;20677;-54
2022/06/21 11:17:32;;;;;;;3.53;1.60;;;;;;;;;;5049219;28;20228;-54
2022/06/21 11:20:03;;;;;;;4.70;1.60;;;;;;;;;;5052452;28;20232;-54
2022/06/21 11:22:40;;;;;;;4.47;1.90;;;;;;;;;;5054274;28;20210;-54
2022/06/21 11:25:13;;;;;;;5.17;1.70;;;;;;;;;;5053744;28;20829;-55
2022/06/21 11:27:43;;;;;;;4.80;1.77;;;;;;;;;;5053970;28;20199;-53
2022/06/21 11:30:11;;;;;;;3.47;1.77;;;;;;;;;;5053524;28;20201;-54
2022/06/21 11:32:40;;;;;;;3.77;1.67;;;;;;;;;;5054194;28;20205;-54
2022/06/21 11:35:13;;;;;;;6.57;2.10;;;;;;;;;;5053825;28;20194;-54
2022/06/21 11:37:58;;;;;;;2.67;1.40;;;;;;;;;;5053822;28;20230;-54
2022/06/21 11:40:39;;;;;;;4.37;1.63;;;;;;;;;;5053716;28;20206;-54
2022/06/21 11:43:07;;;;;;;6.03;2.43;;;;;;;;;;5053895;28;20210;-54
2022/06/21 11:45:45;;;;;;;5.13;2.00;;;;;;;;;;5053705;28;20198;-54
2022/06/21 11:48:21;;;;;;;3.47;1.60;;;;;;;;;;5053609;28;20213;-55
2022/06/21 11:50:52;;;;;;;3.80;1.70;;;;;;;;;;5053859;28;20581;-54
2022/06/21 11:53:30;;;;;;;2.77;1.40;;;;;;;;;;5053811;28;20203;-54
2022/06/21 11:56:00;;;;;;;5.23;1.67;;;;;;;;;;5053372;28;20681;-55
2022/06/21 11:58:35;;;;;;;3.30;1.57;;;;;;;;;;5053406;28;20739;-54
2022/06/21 12:01:03;;;;;;;4.30;1.50;;;;;;;;;;5053358;28;20230;-55
2022/06/21 12:03:33;;;;;;;3.70;1.40;;;;;;;;;;5053436;28;20255;-54
2022/06/21 12:06:03;;;;;;;3.73;1.60;;;;;;;;;;5053461;28;20243;-54
2022/06/21 12:08:33;;;;;;;4.17;1.70;;;;;;;;;;5053214;28;20228;-54
2022/06/21 12:11:03;;;;;;;3.97;1.53;;;;;;;;;;5053065;28;20203;-54
2022/06/21 12:13:36;;;;;;;3.27;1.40;;;;;;;;;;5053033;28;20281;-54
2022/06/21 12:16:16;;;;;;;2.93;1.30;;;;;;;;;;5052725;28;20647;-54
2022/06/21 12:18:44;;;;;;;3.10;1.57;;;;;;;;;;5052793;28;20697;-54
2022/06/21 12:21:12;;;;;;;4.20;1.60;;;;;;;;;;5053555;28;20286;-54
2022/06/21 12:23:41;;;;;;;7.10;1.70;;;;;;;;;;5053297;28;20690;-54
2022/06/21 12:26:10;;;;;;;3.60;1.83;;;;;;;;;;5052996;28;20223;-54
2022/06/21 12:28:37;;;;;;;4.13;1.40;;;;;;;;;;5052672;28;20199;-54
2022/06/21 12:31:10;;;;;;;4.20;1.70;;;;;;;;;;5052701;28;20226;-55
2022/06/21 12:33:38;;;;;;;3.57;1.60;;;;;;;;;;5052823;28;20257;-55
2022/06/21 12:36:21;;;;;;;3.20;1.70;;;;;;;;;;5052802;28;20200;-55
2022/06/21 12:38:49;;;;;;;7.37;1.60;;;;;;;;;;5052537;28;20322;-54
2022/06/21 12:41:22;;;;;;;3.23;1.60;;;;;;;;;;5052488;28;20206;-55
2022/06/21 12:43:52;;;;;;;3.73;1.70;;;;;;;;;;5052947;28;20210;-54
2022/06/21 12:46:24;;;;;;;2.37;1.30;;;;;;;;;;5053299;28;20196;-55
2022/06/21 12:49:12;;;;;;;1.90;1.23;;;;;;;;;;5052800;28;20223;-55
2022/06/21 12:51:43;;;;;;;5.00;1.40;;;;;;;;;;5052651;28;20234;-54
2022/06/21 12:54:26;;;;;;;3.73;1.80;;;;;;;;;;5052309;28;20209;-54
2022/06/21 12:57:06;;;;;;;3.53;1.70;;;;;;;;;;5041975;28;20581;-54
2022/06/21 12:59:40;;;;;;;4.47;3.20;;;;;;;;;;5052506;28;20229;-55
2022/06/21 13:02:26;;;;;;;4.07;1.40;;;;;;;;;;5052407;28;20200;-54
2022/06/21 13:05:00;;;;;;;3.10;1.90;;;;;;;;;;5052201;28;20203;-54
2022/06/21 13:07:34;;;;;;;3.17;1.73;;;;;;;;;;5052016;28;20337;-54
2022/06/21 13:10:11;;;;;;;4.87;2.53;;;;;;;;;;5052174;28;20206;-54
2022/06/21 13:12:46;;;;;;;4.93;1.90;;;;;;;;;;5052200;28;20653;-54
2022/06/21 13:15:21;;;;;;;4.33;2.50;;;;;;;;;;5051052;28;20601;-54
2022/06/21 13:18:08;;;;;;;3.50;2.17;;;;;;;;;;5052075;28;20234;-54
2022/06/21 13:20:36;;;;;;;2.83;1.37;;;;;;;;;;5051824;28;20341;-55
2022/06/21 13:23:07;;;;;;;8.10;3.23;;;;;;;;;;5051921;28;20254;-54
2022/06/21 13:25:39;;;;;;;3.47;1.57;;;;;;;;;;5051533;28;20227;-54
2022/06/21 13:28:11;;;;;;;5.10;1.50;;;;;;;;;;5051517;28;20279;-55
2022/06/21 13:30:43;;;;;;;2.73;1.27;;;;;;;;;;5051605;28;20250;-54
2022/06/21 13:33:11;;;;;;;3.10;1.70;;;;;;;;;;5051667;28;20269;-54
2022/06/21 13:35:42;;;;;;;1.60;1.20;;;;;;;;;;5051821;28;20245;-54
2022/06/21 13:38:15;;;;;;;2.43;1.20;;;;;;;;;;5051443;28;20257;-55
2022/06/21 13:40:45;;;;;;;2.70;1.23;;;;;;;;;;5051662;28;20206;-54
2022/06/21 13:43:15;;;;;;;4.63;1.33;;;;;;;;;;5050893;28;20264;-54
2022/06/21 13:45:44;;;;;;;4.07;1.30;;;;;;;;;;5049532;28;20218;-54
2022/06/21 13:48:14;;;;;;;2.90;1.40;;;;;;;;;;5051836;28;20321;-55
2022/06/21 13:50:51;;;;;;;3.87;1.30;;;;;;;;;;5051418;28;20720;-55
2022/06/21 13:53:20;;;;;;;3.20;1.30;;;;;;;;;;5051501;28;20301;-54
2022/06/21 13:55:48;;;;;;;3.50;1.30;;;;;;;;;;5051060;28;20282;-55
2022/06/21 13:58:34;;;;;;;2.77;1.43;;;;;;;;;;5051523;28;20234;-54
2022/06/21 14:01:07;;;;;;;2.60;1.23;;;;;;;;;;5051934;28;20207;-55
2022/06/21 14:03:37;;;;;;;3.67;1.13;;;;;;;;;;5051715;28;20624;-54
2022/06/21 14:06:08;;;;;;;2.30;1.10;;;;;;;;;;5051412;28;20210;-54
2022/06/21 14:08:40;;;;;;;4.27;1.10;;;;;;;;;;5051337;28;20202;-54
2022/06/21 14:11:18;;;;;;;2.53;0.90;;;;;;;;;;5051345;28;20871;-55
2022/06/21 14:13:50;;;;;;;3.97;1.60;;;;;;;;;;5051077;28;20255;-55
2022/06/21 14:16:18;;;;;;;3.27;1.47;;;;;;;;;;5051031;28;20274;-54
2022/06/21 14:18:49;;;;;;;2.93;1.40;;;;;;;;;;5051389;28;20234;-54
2022/06/21 14:21:21;;;;;;;4.43;1.40;;;;;;;;;;5051786;28;20206;-55
2022/06/21 14:23:48;;;;;;;6.30;1.70;;;;;;;;;;5051540;28;20207;-54
2022/06/21 14:26:18;;;;;;;3.20;1.43;;;;;;;;;;5051142;28;20257;-54
2022/06/21 14:28:46;;;;;;;3.97;1.47;;;;;;;;;;5051270;28;20198;-54
2022/06/21 14:31:18;;;;;;;4.60;1.40;;;;;;;;;;5051157;28;20253;-54
2022/06/21 14:33:50;;;;;;;2.60;1.40;;;;;;;;;;5051144;28;20207;-55
2022/06/21 14:36:19;;;;;;;2.37;1.20;;;;;;;;;;5051084;28;20240;-54
2022/06/21 14:38:47;;;;;;;3.03;1.50;;;;;;;;;;5051149;28;20279;-54
2022/06/21 14:41:14;;;;;;;4.10;1.70;;;;;;;;;;5050991;28;20667;-54
2022/06/21 14:43:43;;;;;;;6.13;1.70;;;;;;;;;;5050856;28;20198;-55
2022/06/21 14:46:13;;;;;;;5.27;1.40;;;;;;;;;;5051283;28;20240;-54
2022/06/21 14:48:45;;;;;;;2.80;1.40;;;;;;;;;;5051094;28;20540;-54
2022/06/21 14:51:16;;;;;;;3.47;1.33;;;;;;;;;;5050842;28;20197;-53
2022/06/21 14:53:47;;;;;;;2.57;1.40;;;;;;;;;;5053013;28;20215;-53
2022/06/21 14:56:20;;;;;;;1.73;0.90;;;;;;;;;;5054818;28;20196;-55
2022/06/21 14:58:56;;;;;;;3.13;1.17;;;;;;;;;;5054706;28;20567;-54
2022/06/21 15:01:33;;;;;;;3.53;1.27;;;;;;;;;;5055248;28;20203;-54
2022/06/21 15:04:03;;;;;;;3.67;1.60;;;;;;;;;;5055242;28;20206;-54
2022/06/21 15:06:32;;;;;;;4.73;1.43;;;;;;;;;;5054794;28;20202;-54
2022/06/21 15:09:01;;;;;;;1.90;1.00;;;;;;;;;;5054714;28;20225;-54
2022/06/21 15:14:19;;;;;;;2.43;1.23;;;;;;;;;;5054570;28;20197;-54
2022/06/21 15:16:47;;;;;;;4.03;1.30;;;;;;;;;;5054275;28;20241;-55
2022/06/21 15:22:16;;;;;;;3.30;1.30;;;;;;;;;;5054527;28;20558;-53